Main page
METAR-TAF:

METAR-TAF

Airports :

RAF Northolt

Northolt, England

latitude: 51-33N, longitude: 000-25W, elevation: 38 m

Current weather observation

The report was made 48 minutes ago, at 17:50 UTC
Wind 5 kt from the West/Southwest
Temperature 24°C
Humidity 54%
Pressure 1019 hPa
Visibility 10 km or more
Few clouds at a height of 4900 ft

METAR: EGWU 231750Z 24005KT 9999 FEW049 24/14 Q1019 NOSIG RMK BLU BLU

Time: 19:38 (18:38 UTC)

Forecast

The report was made 1 hour and 59 minutes ago, at 16:39 UTC
Forecast valid from 23 at 18 UTC to 24 at 12 UTC
Wind 4 kt from the West/Southwest
Visibility 10 km or more
Scattered clouds at a height of 4800 ft

TAF: EGWU 231639Z 2318/2412 25004KT 9999 SCT048

Weather observations and forecasts of more than 4000 airports (METAR and TAF reports).

The available stations are represented by yellow and red dots on the map.

Hover mouse over dot to see the name of the station.

Then click to see weather observations and forecasts.

To change the map : click on the green buttons with a black cross to zoom in, on the green button with a dash to zoom out, or on the green arrows for adjacent maps.


METAR-TAF: